Terminal Aerodrome Forecast
Issued by NWS

Home | Current Version | Previous Version | Text Only | Print | Product List | Glossary On
Versions: 1 2 3 4 5 6 7 8 9 10 11 12 13 14 15 16 17
000
FTUS43 KDDC 150950 AAB
TAFGCK
TAF AMD
KGCK 150950Z 1510/1606 36021G30KT P6SM SKC
     FM151200 01015G25KT P6SM SKC
     FM151500 03010G20KT P6SM SKC
     FM152100 VRB05KT P6SM SKC
     FM160300 15010KT P6SM SKC=

USA.gov is the U.S. government's official web portal to all federal, state and local government web resources and services.